Anson, Texas
Current Conditions -  °F | °C
As of 5:58 AM on Friday 19 Dec 2014 (Local Time) from KDYS Reporting Station
Overcast Overcast  
Wind Chill: 37°   Ceiling: 400
Heat Index: 42°   Visibility: 8mi
Dew Point: 38°   Wind: 9mph
Humidity: 84%   Direction: 20°NNE
Pressure: 30.15"   Gusts: NA
Location:  32.76°N, 99.9°W
Report Text: KDYS 191158Z 02008KT 8SM OVC004 06/03 A3015 RMK AO2A CIG 004 RWY16 SLP205 60000 T00560031 10065 20055 50007
Loading
Personal Weather Stations






























Interactive Weather Map New forecast layout! Learn more

10-Day Weather Forecast

Advertisements
Track Severe Weather on mobile